sensor_id;sensor_type;location;lat;lon;timestamp;P1;durP1;ratioP1;P2;durP2;ratioP2
13408;SDS011;6775;49.574;11.170;2024-01-07T00:00:56;7.37;;;5.33;;
13408;SDS011;6775;49.574;11.170;2024-01-07T00:03:25;8.50;;;6.27;;
13408;SDS011;6775;49.574;11.170;2024-01-07T00:05:53;7.40;;;5.57;;
13408;SDS011;6775;49.574;11.170;2024-01-07T00:08:21;8.33;;;6.17;;
13408;SDS011;6775;49.574;11.170;2024-01-07T00:10:49;7.87;;;5.80;;
13408;SDS011;6775;49.574;11.170;2024-01-07T00:13:21;6.67;;;5.83;;
13408;SDS011;6775;49.574;11.170;2024-01-07T00:15:49;8.47;;;5.53;;
13408;SDS011;6775;49.574;11.170;2024-01-07T00:18:18;7.07;;;5.90;;
13408;SDS011;6775;49.574;11.170;2024-01-07T00:20:46;7.63;;;6.07;;
13408;SDS011;6775;49.574;11.170;2024-01-07T00:23:15;8.10;;;5.93;;
13408;SDS011;6775;49.574;11.170;2024-01-07T00:25:43;8.50;;;6.00;;
13408;SDS011;6775;49.574;11.170;2024-01-07T00:28:11;8.53;;;5.77;;
13408;SDS011;6775;49.574;11.170;2024-01-07T00:30:40;10.77;;;8.07;;
13408;SDS011;6775;49.574;11.170;2024-01-07T00:33:09;9.03;;;6.83;;
13408;SDS011;6775;49.574;11.170;2024-01-07T00:35:37;10.20;;;7.93;;
13408;SDS011;6775;49.574;11.170;2024-01-07T00:38:05;11.13;;;7.33;;
13408;SDS011;6775;49.574;11.170;2024-01-07T00:40:33;12.63;;;7.67;;
13408;SDS011;6775;49.574;11.170;2024-01-07T00:43:01;11.67;;;6.87;;
13408;SDS011;6775;49.574;11.170;2024-01-07T00:45:29;9.90;;;7.17;;
13408;SDS011;6775;49.574;11.170;2024-01-07T00:47:59;8.70;;;6.63;;
13408;SDS011;6775;49.574;11.170;2024-01-07T00:50:27;9.03;;;7.03;;
13408;SDS011;6775;49.574;11.170;2024-01-07T00:52:55;11.90;;;6.67;;
13408;SDS011;6775;49.574;11.170;2024-01-07T00:55:23;7.90;;;6.47;;
13408;SDS011;6775;49.574;11.170;2024-01-07T00:57:52;8.70;;;6.63;;
13408;SDS011;6775;49.574;11.170;2024-01-07T01:00:20;9.40;;;6.33;;
13408;SDS011;6775;49.574;11.170;2024-01-07T01:02:49;8.97;;;6.67;;
13408;SDS011;6775;49.574;11.170;2024-01-07T01:05:19;7.87;;;6.17;;
13408;SDS011;6775;49.574;11.170;2024-01-07T01:07:47;10.97;;;6.87;;
13408;SDS011;6775;49.574;11.170;2024-01-07T01:10:15;7.67;;;6.00;;
13408;SDS011;6775;49.574;11.170;2024-01-07T01:12:44;7.90;;;5.97;;
13408;SDS011;6775;49.574;11.170;2024-01-07T01:15:12;8.23;;;5.70;;
13408;SDS011;6775;49.574;11.170;2024-01-07T01:17:42;9.30;;;6.40;;
13408;SDS011;6775;49.574;11.170;2024-01-07T01:20:11;7.10;;;5.67;;
13408;SDS011;6775;49.574;11.170;2024-01-07T01:22:40;9.17;;;5.70;;
13408;SDS011;6775;49.574;11.170;2024-01-07T01:25:08;8.30;;;5.90;;
13408;SDS011;6775;49.574;11.170;2024-01-07T01:27:37;7.43;;;5.47;;
13408;SDS011;6775;49.574;11.170;2024-01-07T01:30:06;8.87;;;5.87;;
13408;SDS011;6775;49.574;11.170;2024-01-07T01:32:35;7.20;;;5.17;;
13408;SDS011;6775;49.574;11.170;2024-01-07T01:35:04;6.87;;;5.03;;
13408;SDS011;6775;49.574;11.170;2024-01-07T01:37:32;6.73;;;5.13;;
13408;SDS011;6775;49.574;11.170;2024-01-07T01:40:02;7.13;;;5.37;;
13408;SDS011;6775;49.574;11.170;2024-01-07T01:42:31;7.20;;;5.23;;
13408;SDS011;6775;49.574;11.170;2024-01-07T01:44:59;6.70;;;5.13;;
13408;SDS011;6775;49.574;11.170;2024-01-07T01:47:28;6.30;;;4.63;;
13408;SDS011;6775;49.574;11.170;2024-01-07T01:49:58;6.20;;;4.90;;
13408;SDS011;6775;49.574;11.170;2024-01-07T01:54:55;6.80;;;4.07;;
13408;SDS011;6775;49.574;11.170;2024-01-07T01:57:24;6.37;;;4.83;;
13408;SDS011;6775;49.574;11.170;2024-01-07T02:00:01;7.60;;;5.00;;
13408;SDS011;6775;49.574;11.170;2024-01-07T02:02:31;8.60;;;5.63;;
13408;SDS011;6775;49.574;11.170;2024-01-07T02:05:01;6.80;;;4.87;;
13408;SDS011;6775;49.574;11.170;2024-01-07T02:07:30;7.70;;;5.13;;
13408;SDS011;6775;49.574;11.170;2024-01-07T02:09:59;10.40;;;5.30;;
13408;SDS011;6775;49.574;11.170;2024-01-07T02:12:29;6.97;;;5.00;;
13408;SDS011;6775;49.574;11.170;2024-01-07T02:14:57;7.37;;;5.10;;
13408;SDS011;6775;49.574;11.170;2024-01-07T02:17:26;7.77;;;4.97;;
13408;SDS011;6775;49.574;11.170;2024-01-07T02:19:54;7.13;;;4.50;;
13408;SDS011;6775;49.574;11.170;2024-01-07T02:22:23;5.87;;;4.43;;
13408;SDS011;6775;49.574;11.170;2024-01-07T02:24:52;8.30;;;4.83;;
13408;SDS011;6775;49.574;11.170;2024-01-07T02:27:20;7.63;;;4.77;;
13408;SDS011;6775;49.574;11.170;2024-01-07T02:29:48;5.40;;;3.90;;
13408;SDS011;6775;49.574;11.170;2024-01-07T02:32:17;7.20;;;4.57;;
13408;SDS011;6775;49.574;11.170;2024-01-07T02:34:45;6.27;;;4.97;;
13408;SDS011;6775;49.574;11.170;2024-01-07T02:37:13;7.70;;;4.73;;
13408;SDS011;6775;49.574;11.170;2024-01-07T02:39:41;5.83;;;4.30;;
13408;SDS011;6775;49.574;11.170;2024-01-07T02:42:22;7.20;;;4.87;;
13408;SDS011;6775;49.574;11.170;2024-01-07T02:44:50;7.10;;;5.10;;
13408;SDS011;6775;49.574;11.170;2024-01-07T02:47:19;6.27;;;4.57;;
13408;SDS011;6775;49.574;11.170;2024-01-07T02:49:47;5.93;;;4.40;;
13408;SDS011;6775;49.574;11.170;2024-01-07T02:52:15;7.20;;;5.00;;
13408;SDS011;6775;49.574;11.170;2024-01-07T02:54:43;6.47;;;4.47;;
13408;SDS011;6775;49.574;11.170;2024-01-07T02:57:12;6.00;;;4.20;;
13408;SDS011;6775;49.574;11.170;2024-01-07T02:59:41;6.00;;;4.27;;
13408;SDS011;6775;49.574;11.170;2024-01-07T03:02:09;7.23;;;4.67;;
13408;SDS011;6775;49.574;11.170;2024-01-07T03:04:37;8.03;;;4.43;;
13408;SDS011;6775;49.574;11.170;2024-01-07T03:07:05;6.80;;;4.80;;
13408;SDS011;6775;49.574;11.170;2024-01-07T03:09:34;5.90;;;4.47;;
13408;SDS011;6775;49.574;11.170;2024-01-07T03:12:02;6.63;;;4.13;;
13408;SDS011;6775;49.574;11.170;2024-01-07T03:14:31;7.30;;;4.60;;
13408;SDS011;6775;49.574;11.170;2024-01-07T03:17:00;8.93;;;4.70;;
13408;SDS011;6775;49.574;11.170;2024-01-07T03:19:28;6.83;;;4.37;;
13408;SDS011;6775;49.574;11.170;2024-01-07T03:21:57;6.03;;;4.90;;
13408;SDS011;6775;49.574;11.170;2024-01-07T03:24:25;7.33;;;5.27;;
13408;SDS011;6775;49.574;11.170;2024-01-07T03:26:53;7.40;;;4.93;;
13408;SDS011;6775;49.574;11.170;2024-01-07T03:29:21;8.20;;;5.37;;
13408;SDS011;6775;49.574;11.170;2024-01-07T03:31:49;8.07;;;5.20;;
13408;SDS011;6775;49.574;11.170;2024-01-07T03:34:20;8.10;;;4.97;;
13408;SDS011;6775;49.574;11.170;2024-01-07T03:36:49;8.70;;;5.57;;
13408;SDS011;6775;49.574;11.170;2024-01-07T03:39:17;8.53;;;5.13;;
13408;SDS011;6775;49.574;11.170;2024-01-07T03:41:45;8.47;;;5.50;;
13408;SDS011;6775;49.574;11.170;2024-01-07T03:44:13;8.43;;;5.40;;
13408;SDS011;6775;49.574;11.170;2024-01-07T03:46:41;9.30;;;5.17;;
13408;SDS011;6775;49.574;11.170;2024-01-07T03:49:10;6.50;;;4.77;;
13408;SDS011;6775;49.574;11.170;2024-01-07T03:51:39;8.37;;;5.60;;
13408;SDS011;6775;49.574;11.170;2024-01-07T03:54:07;7.23;;;4.60;;
13408;SDS011;6775;49.574;11.170;2024-01-07T03:56:36;8.07;;;5.07;;
13408;SDS011;6775;49.574;11.170;2024-01-07T03:59:04;5.50;;;4.60;;
13408;SDS011;6775;49.574;11.170;2024-01-07T04:01:32;6.60;;;4.57;;
13408;SDS011;6775;49.574;11.170;2024-01-07T04:04:00;6.47;;;4.40;;
13408;SDS011;6775;49.574;11.170;2024-01-07T04:06:28;7.13;;;4.30;;
13408;SDS011;6775;49.574;11.170;2024-01-07T04:08:58;7.17;;;5.07;;
13408;SDS011;6775;49.574;11.170;2024-01-07T04:11:26;6.23;;;4.13;;
13408;SDS011;6775;49.574;11.170;2024-01-07T04:13:54;7.03;;;4.77;;
13408;SDS011;6775;49.574;11.170;2024-01-07T04:16:22;5.13;;;4.07;;
13408;SDS011;6775;49.574;11.170;2024-01-07T04:18:51;6.53;;;4.37;;
13408;SDS011;6775;49.574;11.170;2024-01-07T04:21:19;7.90;;;4.70;;
13408;SDS011;6775;49.574;11.170;2024-01-07T04:23:48;7.53;;;4.90;;
13408;SDS011;6775;49.574;11.170;2024-01-07T04:26:17;7.03;;;5.00;;
13408;SDS011;6775;49.574;11.170;2024-01-07T04:28:45;8.23;;;4.60;;
13408;SDS011;6775;49.574;11.170;2024-01-07T04:31:14;6.63;;;4.83;;
13408;SDS011;6775;49.574;11.170;2024-01-07T04:33:42;6.73;;;4.23;;
13408;SDS011;6775;49.574;11.170;2024-01-07T04:36:10;6.63;;;4.10;;
13408;SDS011;6775;49.574;11.170;2024-01-07T04:38:39;6.03;;;3.93;;
13408;SDS011;6775;49.574;11.170;2024-01-07T04:41:07;5.30;;;3.70;;
13408;SDS011;6775;49.574;11.170;2024-01-07T04:43:36;4.37;;;3.50;;
13408;SDS011;6775;49.574;11.170;2024-01-07T04:46:04;5.30;;;3.70;;
13408;SDS011;6775;49.574;11.170;2024-01-07T04:48:33;5.60;;;4.13;;
13408;SDS011;6775;49.574;11.170;2024-01-07T04:51:01;3.23;;;2.93;;
13408;SDS011;6775;49.574;11.170;2024-01-07T04:53:29;6.27;;;4.20;;
13408;SDS011;6775;49.574;11.170;2024-01-07T04:55:57;5.20;;;3.53;;
13408;SDS011;6775;49.574;11.170;2024-01-07T04:58:27;4.93;;;3.33;;
13408;SDS011;6775;49.574;11.170;2024-01-07T05:00:56;6.00;;;3.47;;
13408;SDS011;6775;49.574;11.170;2024-01-07T05:03:24;6.27;;;3.77;;
13408;SDS011;6775;49.574;11.170;2024-01-07T05:05:53;5.80;;;3.73;;
13408;SDS011;6775;49.574;11.170;2024-01-07T05:08:21;5.00;;;3.60;;
13408;SDS011;6775;49.574;11.170;2024-01-07T05:10:52;4.93;;;3.30;;
13408;SDS011;6775;49.574;11.170;2024-01-07T05:13:20;6.10;;;3.77;;
13408;SDS011;6775;49.574;11.170;2024-01-07T05:15:49;5.50;;;3.37;;
13408;SDS011;6775;49.574;11.170;2024-01-07T05:18:21;4.87;;;3.20;;
13408;SDS011;6775;49.574;11.170;2024-01-07T05:20:51;4.73;;;3.20;;
13408;SDS011;6775;49.574;11.170;2024-01-07T05:23:19;6.03;;;3.70;;
13408;SDS011;6775;49.574;11.170;2024-01-07T05:25:48;5.60;;;3.47;;
13408;SDS011;6775;49.574;11.170;2024-01-07T05:28:16;5.90;;;3.60;;
13408;SDS011;6775;49.574;11.170;2024-01-07T05:30:46;5.27;;;4.10;;
13408;SDS011;6775;49.574;11.170;2024-01-07T05:33:14;6.53;;;4.17;;
13408;SDS011;6775;49.574;11.170;2024-01-07T05:35:44;6.00;;;3.57;;
13408;SDS011;6775;49.574;11.170;2024-01-07T05:38:12;5.57;;;3.80;;
13408;SDS011;6775;49.574;11.170;2024-01-07T05:40:40;7.23;;;4.83;;
13408;SDS011;6775;49.574;11.170;2024-01-07T05:43:09;5.43;;;3.87;;
13408;SDS011;6775;49.574;11.170;2024-01-07T05:45:37;5.83;;;4.13;;
13408;SDS011;6775;49.574;11.170;2024-01-07T05:48:05;7.27;;;4.37;;
13408;SDS011;6775;49.574;11.170;2024-01-07T05:50:34;8.03;;;4.77;;
13408;SDS011;6775;49.574;11.170;2024-01-07T05:53:04;6.13;;;4.10;;
13408;SDS011;6775;49.574;11.170;2024-01-07T05:55:32;6.10;;;4.00;;
13408;SDS011;6775;49.574;11.170;2024-01-07T05:58:00;7.47;;;4.50;;
13408;SDS011;6775;49.574;11.170;2024-01-07T06:00:28;7.63;;;4.50;;
13408;SDS011;6775;49.574;11.170;2024-01-07T06:02:56;7.20;;;4.10;;
13408;SDS011;6775;49.574;11.170;2024-01-07T06:05:25;6.17;;;4.03;;
13408;SDS011;6775;49.574;11.170;2024-01-07T06:07:54;7.83;;;4.30;;
13408;SDS011;6775;49.574;11.170;2024-01-07T06:10:23;7.00;;;4.40;;
13408;SDS011;6775;49.574;11.170;2024-01-07T06:12:51;5.40;;;4.20;;
13408;SDS011;6775;49.574;11.170;2024-01-07T06:15:19;7.87;;;4.50;;
13408;SDS011;6775;49.574;11.170;2024-01-07T06:17:48;7.60;;;4.40;;
13408;SDS011;6775;49.574;11.170;2024-01-07T06:20:16;9.67;;;4.97;;
13408;SDS011;6775;49.574;11.170;2024-01-07T06:22:45;8.37;;;4.80;;
13408;SDS011;6775;49.574;11.170;2024-01-07T06:25:13;8.40;;;5.07;;
13408;SDS011;6775;49.574;11.170;2024-01-07T06:27:43;9.00;;;4.50;;
13408;SDS011;6775;49.574;11.170;2024-01-07T06:30:11;8.90;;;5.53;;
13408;SDS011;6775;49.574;11.170;2024-01-07T06:32:41;9.23;;;6.03;;
13408;SDS011;6775;49.574;11.170;2024-01-07T06:35:10;9.37;;;5.60;;
13408;SDS011;6775;49.574;11.170;2024-01-07T06:37:38;6.67;;;5.30;;
13408;SDS011;6775;49.574;11.170;2024-01-07T06:40:07;10.07;;;5.47;;
13408;SDS011;6775;49.574;11.170;2024-01-07T06:42:37;8.10;;;5.80;;
13408;SDS011;6775;49.574;11.170;2024-01-07T06:45:09;9.77;;;5.93;;
13408;SDS011;6775;49.574;11.170;2024-01-07T06:47:37;9.00;;;5.60;;
13408;SDS011;6775;49.574;11.170;2024-01-07T06:50:05;8.27;;;5.47;;
13408;SDS011;6775;49.574;11.170;2024-01-07T06:52:34;7.67;;;5.30;;
13408;SDS011;6775;49.574;11.170;2024-01-07T06:55:02;9.33;;;5.70;;
13408;SDS011;6775;49.574;11.170;2024-01-07T06:57:31;8.63;;;5.50;;
13408;SDS011;6775;49.574;11.170;2024-01-07T06:59:59;7.33;;;5.33;;
13408;SDS011;6775;49.574;11.170;2024-01-07T07:02:30;9.90;;;5.60;;
13408;SDS011;6775;49.574;11.170;2024-01-07T07:04:58;7.97;;;5.43;;
13408;SDS011;6775;49.574;11.170;2024-01-07T07:07:26;7.83;;;5.97;;
13408;SDS011;6775;49.574;11.170;2024-01-07T07:09:55;8.40;;;5.77;;
13408;SDS011;6775;49.574;11.170;2024-01-07T07:12:23;8.77;;;5.67;;
13408;SDS011;6775;49.574;11.170;2024-01-07T07:14:51;8.87;;;5.50;;
13408;SDS011;6775;49.574;11.170;2024-01-07T07:17:19;7.80;;;5.67;;
13408;SDS011;6775;49.574;11.170;2024-01-07T07:19:49;9.20;;;6.07;;
13408;SDS011;6775;49.574;11.170;2024-01-07T07:22:17;8.73;;;5.70;;
13408;SDS011;6775;49.574;11.170;2024-01-07T07:24:45;8.63;;;6.30;;
13408;SDS011;6775;49.574;11.170;2024-01-07T07:27:14;8.13;;;6.13;;
13408;SDS011;6775;49.574;11.170;2024-01-07T07:29:42;9.20;;;6.23;;
13408;SDS011;6775;49.574;11.170;2024-01-07T07:32:10;8.53;;;6.00;;
13408;SDS011;6775;49.574;11.170;2024-01-07T07:34:39;9.50;;;5.97;;
13408;SDS011;6775;49.574;11.170;2024-01-07T07:37:08;9.33;;;6.30;;
13408;SDS011;6775;49.574;11.170;2024-01-07T07:39:37;9.87;;;6.57;;
13408;SDS011;6775;49.574;11.170;2024-01-07T07:42:05;10.20;;;6.47;;
13408;SDS011;6775;49.574;11.170;2024-01-07T07:44:33;9.70;;;6.30;;
13408;SDS011;6775;49.574;11.170;2024-01-07T07:47:01;8.67;;;6.00;;
13408;SDS011;6775;49.574;11.170;2024-01-07T07:49:30;11.00;;;6.60;;
13408;SDS011;6775;49.574;11.170;2024-01-07T07:51:58;11.30;;;6.60;;
13408;SDS011;6775;49.574;11.170;2024-01-07T07:54:28;9.10;;;6.80;;
13408;SDS011;6775;49.574;11.170;2024-01-07T07:56:59;9.57;;;5.70;;
13408;SDS011;6775;49.574;11.170;2024-01-07T07:59:27;9.40;;;6.27;;
13408;SDS011;6775;49.574;11.170;2024-01-07T08:01:55;8.03;;;5.73;;
13408;SDS011;6775;49.574;11.170;2024-01-07T08:04:23;8.90;;;5.80;;
13408;SDS011;6775;49.574;11.170;2024-01-07T08:06:53;8.10;;;5.70;;
13408;SDS011;6775;49.574;11.170;2024-01-07T08:09:22;8.90;;;6.00;;
13408;SDS011;6775;49.574;11.170;2024-01-07T08:11:52;8.90;;;6.63;;
13408;SDS011;6775;49.574;11.170;2024-01-07T08:14:20;8.83;;;6.07;;
13408;SDS011;6775;49.574;11.170;2024-01-07T08:16:48;9.97;;;6.83;;
13408;SDS011;6775;49.574;11.170;2024-01-07T08:19:17;10.53;;;6.60;;
13408;SDS011;6775;49.574;11.170;2024-01-07T08:21:45;8.03;;;5.93;;
13408;SDS011;6775;49.574;11.170;2024-01-07T08:24:13;10.97;;;6.73;;
13408;SDS011;6775;49.574;11.170;2024-01-07T08:26:41;9.23;;;5.93;;
13408;SDS011;6775;49.574;11.170;2024-01-07T08:29:11;8.20;;;6.33;;
13408;SDS011;6775;49.574;11.170;2024-01-07T08:31:39;9.97;;;6.43;;
13408;SDS011;6775;49.574;11.170;2024-01-07T08:34:08;10.93;;;6.43;;
13408;SDS011;6775;49.574;11.170;2024-01-07T08:36:36;10.03;;;6.53;;
13408;SDS011;6775;49.574;11.170;2024-01-07T08:39:05;9.27;;;6.87;;
13408;SDS011;6775;49.574;11.170;2024-01-07T08:41:34;10.97;;;6.80;;
13408;SDS011;6775;49.574;11.170;2024-01-07T08:44:02;12.07;;;7.03;;
13408;SDS011;6775;49.574;11.170;2024-01-07T08:46:31;11.63;;;7.20;;
13408;SDS011;6775;49.574;11.170;2024-01-07T08:49:00;9.47;;;6.77;;
13408;SDS011;6775;49.574;11.170;2024-01-07T08:51:29;10.07;;;6.87;;
13408;SDS011;6775;49.574;11.170;2024-01-07T08:57:02;10.60;;;7.17;;
13408;SDS011;6775;49.574;11.170;2024-01-07T08:59:30;10.40;;;6.77;;
13408;SDS011;6775;49.574;11.170;2024-01-07T09:02:00;10.57;;;7.10;;
13408;SDS011;6775;49.574;11.170;2024-01-07T09:04:28;11.73;;;7.13;;
13408;SDS011;6775;49.574;11.170;2024-01-07T09:06:56;12.23;;;7.10;;
13408;SDS011;6775;49.574;11.170;2024-01-07T09:09:24;11.27;;;7.07;;
13408;SDS011;6775;49.574;11.170;2024-01-07T09:11:52;10.93;;;7.47;;
13408;SDS011;6775;49.574;11.170;2024-01-07T09:14:22;12.30;;;7.80;;
13408;SDS011;6775;49.574;11.170;2024-01-07T09:16:51;10.77;;;6.97;;
13408;SDS011;6775;49.574;11.170;2024-01-07T09:19:21;11.83;;;6.50;;
13408;SDS011;6775;49.574;11.170;2024-01-07T09:21:49;12.30;;;7.90;;
13408;SDS011;6775;49.574;11.170;2024-01-07T09:24:18;11.20;;;7.20;;
13408;SDS011;6775;49.574;11.170;2024-01-07T09:26:47;11.07;;;7.23;;
13408;SDS011;6775;49.574;11.170;2024-01-07T09:29:15;12.33;;;7.60;;
13408;SDS011;6775;49.574;11.170;2024-01-07T09:31:43;14.07;;;7.10;;
13408;SDS011;6775;49.574;11.170;2024-01-07T09:34:11;12.43;;;7.23;;
13408;SDS011;6775;49.574;11.170;2024-01-07T09:36:42;11.57;;;7.43;;
13408;SDS011;6775;49.574;11.170;2024-01-07T09:39:11;10.43;;;6.97;;
13408;SDS011;6775;49.574;11.170;2024-01-07T09:41:39;9.63;;;7.27;;
13408;SDS011;6775;49.574;11.170;2024-01-07T09:44:07;13.57;;;7.47;;
13408;SDS011;6775;49.574;11.170;2024-01-07T09:46:37;11.80;;;7.17;;
13408;SDS011;6775;49.574;11.170;2024-01-07T09:49:07;15.87;;;8.10;;
13408;SDS011;6775;49.574;11.170;2024-01-07T09:51:35;14.73;;;8.10;;
13408;SDS011;6775;49.574;11.170;2024-01-07T09:54:05;12.67;;;7.63;;
13408;SDS011;6775;49.574;11.170;2024-01-07T09:56:42;11.57;;;6.53;;
13408;SDS011;6775;49.574;11.170;2024-01-07T09:59:18;11.87;;;7.90;;
13408;SDS011;6775;49.574;11.170;2024-01-07T10:01:46;13.43;;;8.27;;
13408;SDS011;6775;49.574;11.170;2024-01-07T10:04:19;10.80;;;6.57;;
13408;SDS011;6775;49.574;11.170;2024-01-07T10:06:47;11.63;;;7.83;;
13408;SDS011;6775;49.574;11.170;2024-01-07T10:09:17;12.23;;;6.77;;
13408;SDS011;6775;49.574;11.170;2024-01-07T10:11:46;10.60;;;7.30;;
13408;SDS011;6775;49.574;11.170;2024-01-07T10:14:14;14.80;;;7.30;;
13408;SDS011;6775;49.574;11.170;2024-01-07T10:16:42;11.33;;;7.13;;
13408;SDS011;6775;49.574;11.170;2024-01-07T10:19:10;9.40;;;6.17;;
13408;SDS011;6775;49.574;11.170;2024-01-07T10:21:38;12.37;;;7.40;;
13408;SDS011;6775;49.574;11.170;2024-01-07T10:24:07;12.70;;;6.73;;
13408;SDS011;6775;49.574;11.170;2024-01-07T10:26:38;11.17;;;7.50;;
13408;SDS011;6775;49.574;11.170;2024-01-07T10:29:07;11.73;;;7.10;;
13408;SDS011;6775;49.574;11.170;2024-01-07T10:31:37;11.47;;;7.00;;
13408;SDS011;6775;49.574;11.170;2024-01-07T10:34:07;12.30;;;7.60;;
13408;SDS011;6775;49.574;11.170;2024-01-07T10:36:36;12.60;;;7.10;;
13408;SDS011;6775;49.574;11.170;2024-01-07T10:39:04;12.17;;;7.23;;
13408;SDS011;6775;49.574;11.170;2024-01-07T10:41:33;10.67;;;7.00;;
13408;SDS011;6775;49.574;11.170;2024-01-07T10:44:06;10.20;;;6.77;;
13408;SDS011;6775;49.574;11.170;2024-01-07T10:46:35;9.40;;;7.07;;
13408;SDS011;6775;49.574;11.170;2024-01-07T10:49:04;10.97;;;7.87;;
13408;SDS011;6775;49.574;11.170;2024-01-07T10:51:41;11.10;;;6.80;;
13408;SDS011;6775;49.574;11.170;2024-01-07T10:54:11;10.27;;;7.17;;
13408;SDS011;6775;49.574;11.170;2024-01-07T10:56:48;10.37;;;7.70;;
13408;SDS011;6775;49.574;11.170;2024-01-07T10:59:25;12.60;;;6.90;;
13408;SDS011;6775;49.574;11.170;2024-01-07T11:01:55;12.57;;;7.37;;
13408;SDS011;6775;49.574;11.170;2024-01-07T11:04:29;9.43;;;7.17;;
13408;SDS011;6775;49.574;11.170;2024-01-07T11:07:12;10.30;;;7.00;;
13408;SDS011;6775;49.574;11.170;2024-01-07T11:09:50;14.13;;;7.40;;
13408;SDS011;6775;49.574;11.170;2024-01-07T11:12:33;12.23;;;7.20;;
13408;SDS011;6775;49.574;11.170;2024-01-07T11:15:02;12.30;;;7.63;;
13408;SDS011;6775;49.574;11.170;2024-01-07T11:17:39;10.87;;;6.90;;
13408;SDS011;6775;49.574;11.170;2024-01-07T11:20:18;10.57;;;6.53;;
13408;SDS011;6775;49.574;11.170;2024-01-07T11:22:48;12.07;;;7.13;;
13408;SDS011;6775;49.574;11.170;2024-01-07T11:25:29;10.23;;;6.10;;
13408;SDS011;6775;49.574;11.170;2024-01-07T11:28:01;10.40;;;6.70;;
13408;SDS011;6775;49.574;11.170;2024-01-07T11:30:30;10.87;;;6.37;;
13408;SDS011;6775;49.574;11.170;2024-01-07T11:33:08;10.83;;;6.70;;
13408;SDS011;6775;49.574;11.170;2024-01-07T11:35:54;13.07;;;6.83;;
13408;SDS011;6775;49.574;11.170;2024-01-07T11:38:23;10.40;;;6.03;;
13408;SDS011;6775;49.574;11.170;2024-01-07T11:40:52;7.30;;;5.30;;
13408;SDS011;6775;49.574;11.170;2024-01-07T11:43:23;10.47;;;6.10;;
13408;SDS011;6775;49.574;11.170;2024-01-07T11:45:51;6.90;;;4.90;;
13408;SDS011;6775;49.574;11.170;2024-01-07T11:48:20;7.80;;;5.37;;
13408;SDS011;6775;49.574;11.170;2024-01-07T11:50:49;9.20;;;5.47;;
13408;SDS011;6775;49.574;11.170;2024-01-07T11:53:21;8.27;;;5.50;;
13408;SDS011;6775;49.574;11.170;2024-01-07T11:55:49;9.47;;;6.10;;
13408;SDS011;6775;49.574;11.170;2024-01-07T11:58:19;10.03;;;5.60;;
13408;SDS011;6775;49.574;11.170;2024-01-07T12:00:48;9.73;;;5.33;;
13408;SDS011;6775;49.574;11.170;2024-01-07T12:03:16;8.53;;;5.90;;
13408;SDS011;6775;49.574;11.170;2024-01-07T12:05:44;8.83;;;5.97;;
13408;SDS011;6775;49.574;11.170;2024-01-07T12:08:14;10.37;;;5.63;;
13408;SDS011;6775;49.574;11.170;2024-01-07T12:10:43;10.17;;;6.10;;
13408;SDS011;6775;49.574;11.170;2024-01-07T12:13:12;9.90;;;6.13;;
13408;SDS011;6775;49.574;11.170;2024-01-07T12:15:40;9.30;;;5.63;;
13408;SDS011;6775;49.574;11.170;2024-01-07T12:18:10;7.67;;;5.17;;
13408;SDS011;6775;49.574;11.170;2024-01-07T12:20:39;7.70;;;5.33;;
13408;SDS011;6775;49.574;11.170;2024-01-07T12:23:07;7.97;;;5.23;;
13408;SDS011;6775;49.574;11.170;2024-01-07T12:25:36;7.80;;;5.23;;
13408;SDS011;6775;49.574;11.170;2024-01-07T12:28:06;7.93;;;4.97;;
13408;SDS011;6775;49.574;11.170;2024-01-07T12:30:35;7.80;;;4.93;;
13408;SDS011;6775;49.574;11.170;2024-01-07T12:33:05;11.23;;;4.63;;
13408;SDS011;6775;49.574;11.170;2024-01-07T12:35:35;10.33;;;5.47;;
13408;SDS011;6775;49.574;11.170;2024-01-07T12:38:04;7.63;;;4.83;;
13408;SDS011;6775;49.574;11.170;2024-01-07T12:40:33;6.23;;;4.67;;
13408;SDS011;6775;49.574;11.170;2024-01-07T12:43:01;9.53;;;5.43;;
13408;SDS011;6775;49.574;11.170;2024-01-07T12:45:30;7.30;;;4.80;;
13408;SDS011;6775;49.574;11.170;2024-01-07T12:47:59;9.03;;;4.53;;
13408;SDS011;6775;49.574;11.170;2024-01-07T12:50:29;9.87;;;4.63;;
13408;SDS011;6775;49.574;11.170;2024-01-07T12:52:59;6.93;;;4.50;;
13408;SDS011;6775;49.574;11.170;2024-01-07T12:55:27;9.23;;;4.67;;
13408;SDS011;6775;49.574;11.170;2024-01-07T12:57:56;6.90;;;4.33;;
13408;SDS011;6775;49.574;11.170;2024-01-07T13:00:24;7.00;;;4.43;;
13408;SDS011;6775;49.574;11.170;2024-01-07T13:02:54;8.00;;;4.77;;
13408;SDS011;6775;49.574;11.170;2024-01-07T13:05:27;6.47;;;4.50;;
13408;SDS011;6775;49.574;11.170;2024-01-07T13:07:55;5.50;;;4.23;;
13408;SDS011;6775;49.574;11.170;2024-01-07T13:10:25;7.83;;;4.63;;
13408;SDS011;6775;49.574;11.170;2024-01-07T13:12:53;6.83;;;4.40;;
13408;SDS011;6775;49.574;11.170;2024-01-07T13:15:33;6.30;;;4.77;;
13408;SDS011;6775;49.574;11.170;2024-01-07T13:18:01;7.07;;;4.43;;
13408;SDS011;6775;49.574;11.170;2024-01-07T13:20:30;7.47;;;4.27;;
13408;SDS011;6775;49.574;11.170;2024-01-07T13:23:00;6.07;;;4.40;;
13408;SDS011;6775;49.574;11.170;2024-01-07T13:25:32;4.47;;;4.00;;
13408;SDS011;6775;49.574;11.170;2024-01-07T13:28:00;7.07;;;4.10;;
13408;SDS011;6775;49.574;11.170;2024-01-07T13:30:28;9.03;;;4.80;;
13408;SDS011;6775;49.574;11.170;2024-01-07T13:32:57;5.20;;;4.20;;
13408;SDS011;6775;49.574;11.170;2024-01-07T13:35:28;7.23;;;4.50;;
13408;SDS011;6775;49.574;11.170;2024-01-07T13:37:56;5.87;;;4.20;;
13408;SDS011;6775;49.574;11.170;2024-01-07T13:40:24;6.07;;;4.23;;
13408;SDS011;6775;49.574;11.170;2024-01-07T13:42:54;5.03;;;4.07;;
13408;SDS011;6775;49.574;11.170;2024-01-07T13:45:22;5.33;;;4.37;;
13408;SDS011;6775;49.574;11.170;2024-01-07T13:47:51;7.13;;;4.23;;
13408;SDS011;6775;49.574;11.170;2024-01-07T13:50:19;4.93;;;3.63;;
13408;SDS011;6775;49.574;11.170;2024-01-07T13:52:47;5.73;;;4.03;;
13408;SDS011;6775;49.574;11.170;2024-01-07T13:55:16;5.73;;;3.97;;
13408;SDS011;6775;49.574;11.170;2024-01-07T13:57:44;5.27;;;4.20;;
13408;SDS011;6775;49.574;11.170;2024-01-07T14:00:14;5.43;;;3.70;;
13408;SDS011;6775;49.574;11.170;2024-01-07T14:02:45;6.40;;;4.23;;
13408;SDS011;6775;49.574;11.170;2024-01-07T14:05:14;5.20;;;3.77;;
13408;SDS011;6775;49.574;11.170;2024-01-07T14:07:46;5.40;;;4.20;;
13408;SDS011;6775;49.574;11.170;2024-01-07T14:10:14;6.83;;;3.87;;
13408;SDS011;6775;49.574;11.170;2024-01-07T14:12:45;4.57;;;3.43;;
13408;SDS011;6775;49.574;11.170;2024-01-07T14:15:15;3.53;;;3.10;;
13408;SDS011;6775;49.574;11.170;2024-01-07T14:17:44;6.67;;;4.07;;
13408;SDS011;6775;49.574;11.170;2024-01-07T14:20:13;5.33;;;3.87;;
13408;SDS011;6775;49.574;11.170;2024-01-07T14:22:41;5.80;;;3.30;;
13408;SDS011;6775;49.574;11.170;2024-01-07T14:25:09;5.77;;;4.07;;
13408;SDS011;6775;49.574;11.170;2024-01-07T14:27:37;5.50;;;3.60;;
13408;SDS011;6775;49.574;11.170;2024-01-07T14:30:06;5.47;;;3.73;;
13408;SDS011;6775;49.574;11.170;2024-01-07T14:32:36;5.70;;;3.30;;
13408;SDS011;6775;49.574;11.170;2024-01-07T14:35:04;6.67;;;4.73;;
13408;SDS011;6775;49.574;11.170;2024-01-07T14:37:34;6.00;;;3.60;;
13408;SDS011;6775;49.574;11.170;2024-01-07T14:40:02;7.20;;;4.00;;
13408;SDS011;6775;49.574;11.170;2024-01-07T14:42:32;5.57;;;3.60;;
13408;SDS011;6775;49.574;11.170;2024-01-07T14:45:00;4.83;;;4.23;;
13408;SDS011;6775;49.574;11.170;2024-01-07T14:47:30;4.67;;;3.80;;
13408;SDS011;6775;49.574;11.170;2024-01-07T14:50:00;6.00;;;3.90;;
13408;SDS011;6775;49.574;11.170;2024-01-07T14:52:32;6.63;;;4.30;;
13408;SDS011;6775;49.574;11.170;2024-01-07T14:55:00;5.33;;;4.40;;
13408;SDS011;6775;49.574;11.170;2024-01-07T14:57:28;6.83;;;4.10;;
13408;SDS011;6775;49.574;11.170;2024-01-07T14:59:57;6.67;;;4.07;;
13408;SDS011;6775;49.574;11.170;2024-01-07T15:02:25;6.40;;;4.07;;